Time;durP1;ratioP1;P1;durP2;ratioP2;P2;SDS_P1;SDS_P2;PMS_P1;PMS_P2;Temp;Humidity;BMP_temperature;BMP_pressure;BME280_temperature;BME280_humidity;BME280_pressure;Samples;Min_cycle;Max_cycle;Signal;HPM_P1;HPM_P2
2023/07/03 21:02:56;;;;;;;1.37;1.23;;;;;;;26.93;81.05;99216.75;5063992;28;20236;-64
2023/07/03 21:05:23;;;;;;;1.07;1.03;;;;;;;26.84;82.31;99215.06;5071155;28;20628;-64
2023/07/03 21:07:50;;;;;;;4.00;1.30;;;;;;;26.68;83.32;99201.75;5071364;28;20615;-65
2023/07/03 21:10:17;;;;;;;1.83;1.10;;;;;;;26.62;84.01;99218.97;5070968;28;20699;-64
2023/07/03 21:12:44;;;;;;;1.47;1.37;;;;;;;26.57;85.06;99218.59;5071395;28;20203;-64
2023/07/03 21:15:11;;;;;;;0.80;0.80;;;;;;;26.58;84.80;99217.63;5070861;28;20227;-64
2023/07/03 21:17:38;;;;;;;0.90;0.90;;;;;;;26.54;85.74;99218.88;5071413;28;20672;-64
2023/07/03 21:20:08;;;;;;;0.60;0.60;;;;;;;26.41;86.43;99213.19;5071020;28;20212;-64
2023/07/03 21:22:35;;;;;;;0.80;0.80;;;;;;;26.33;87.63;99207.88;5064343;28;20207;-64
2023/07/03 21:25:02;;;;;;;1.57;1.23;;;;;;;26.31;87.76;99204.56;5071153;28;20683;-64
2023/07/03 21:27:29;;;;;;;2.13;1.03;;;;;;;26.30;88.00;99205.53;5070999;28;20204;-64
2023/07/03 21:29:55;;;;;;;1.17;1.07;;;;;;;26.26;88.48;99210.28;5070963;28;20199;-64
2023/07/03 21:32:22;;;;;;;0.83;0.80;;;;;;;26.26;88.87;99206.81;5070832;28;20252;-64
2023/07/03 21:34:50;;;;;;;0.73;0.73;;;;;;;26.23;89.32;99212.38;5071208;28;20234;-64
2023/07/03 21:37:20;;;;;;;4.23;2.03;;;;;;;26.17;90.11;99210.34;5070558;28;20755;-64
2023/07/03 21:39:47;;;;;;;1.23;1.23;;;;;;;26.14;90.27;99208.00;5071106;28;20660;-65
2023/07/03 21:42:13;;;;;;;0.97;0.97;;;;;;;26.19;89.59;99211.84;5070767;28;20196;-65
2023/07/03 21:44:40;;;;;;;2.63;0.90;;;;;;;26.21;89.67;99214.31;5071223;28;20207;-64
2023/07/03 21:47:07;;;;;;;1.27;1.20;;;;;;;26.23;89.32;99222.88;5070742;28;20192;-64
2023/07/03 21:49:34;;;;;;;1.83;1.30;;;;;;;26.25;88.69;99219.13;5071029;28;20203;-64
2023/07/03 21:52:00;;;;;;;0.90;0.90;;;;;;;26.26;89.18;99209.44;5071059;28;20664;-64
2023/07/03 21:54:28;;;;;;;1.53;0.90;;;;;;;26.26;89.05;99212.91;5070532;28;20257;-64
2023/07/03 21:56:55;;;;;;;1.13;1.13;;;;;;;26.27;88.67;99214.53;5071026;28;20557;-64
2023/07/03 21:59:22;;;;;;;0.97;0.97;;;;;;;26.28;88.95;99218.00;5070820;28;20226;-64
2023/07/03 22:01:51;;;;;;;0.90;0.90;;;;;;;26.26;89.57;99212.06;5070638;28;20227;-64
2023/07/03 22:04:17;;;;;;;0.97;0.97;;;;;;;26.26;90.20;99222.59;5070555;28;20211;-64
2023/07/03 22:06:44;;;;;;;1.20;1.20;;;;;;;26.24;89.43;99219.25;5070732;28;20278;-64
2023/07/03 22:09:11;;;;;;;1.00;1.00;;;;;;;26.22;89.71;99221.22;5070617;28;20656;-64
2023/07/03 22:11:39;;;;;;;1.33;1.23;;;;;;;26.22;90.41;99221.22;5069395;28;20545;-64
2023/07/03 22:14:06;;;;;;;1.50;1.40;;;;;;;26.19;90.13;99216.28;5070641;28;20229;-62
2023/07/03 22:16:33;;;;;;;1.10;1.00;;;;;;;26.17;90.63;99220.84;5070256;28;20204;-62
2023/07/03 22:19:00;;;;;;;2.77;1.37;;;;;;;26.18;90.00;99217.22;5070606;28;20263;-62
2023/07/03 22:21:29;;;;;;;2.10;1.37;;;;;;;26.15;90.70;99214.88;5072508;28;20193;-62
2023/07/03 22:23:56;;;;;;;1.73;1.13;;;;;;;26.08;90.12;99215.47;5074200;28;20192;-62
2023/07/03 22:26:23;;;;;;;1.20;1.10;;;;;;;25.98;90.57;99208.63;5074081;28;20192;-62
2023/07/03 22:28:51;;;;;;;2.70;1.47;;;;;;;25.99;91.17;99224.25;5074413;28;20267;-62
2023/07/03 22:31:18;;;;;;;2.37;1.10;;;;;;;26.00;90.99;99225.09;5074269;28;20743;-62
2023/07/03 22:33:45;;;;;;;1.37;0.90;;;;;;;25.98;91.68;99227.84;5074066;28;20672;-62
2023/07/03 22:36:13;;;;;;;2.03;1.20;;;;;;;25.93;91.35;99216.13;5073966;28;20196;-62
2023/07/03 22:38:40;;;;;;;3.10;1.23;;;;;;;25.92;91.23;99223.19;5073576;28;20621;-62
2023/07/03 22:41:08;;;;;;;4.27;1.23;;;;;;;25.91;90.98;99236.47;5074234;28;20672;-62
2023/07/03 22:43:35;;;;;;;0.93;0.93;;;;;;;25.84;91.47;99228.38;5073669;28;20215;-62
2023/07/03 22:46:04;;;;;;;2.70;1.53;;;;;;;25.82;90.97;99230.28;5073913;28;20200;-62
2023/07/03 22:48:32;;;;;;;2.77;0.90;;;;;;;25.83;91.58;99231.94;5073820;28;20798;-62
2023/07/03 22:51:00;;;;;;;1.10;1.00;;;;;;;25.74;92.02;99232.84;5073808;28;20641;-62
2023/07/03 22:53:27;;;;;;;1.17;1.13;;;;;;;25.68;92.26;99228.16;5073682;28;20291;-62
2023/07/03 22:55:54;;;;;;;1.07;1.07;;;;;;;25.58;93.22;99227.38;5073805;28;20196;-62
2023/07/03 22:58:21;;;;;;;3.23;1.10;;;;;;;25.45;92.79;99218.97;5073541;28;20266;-62
2023/07/03 23:00:48;;;;;;;0.83;0.83;;;;;;;25.52;92.77;99228.81;5073150;28;20240;-62
2023/07/03 23:03:16;;;;;;;1.20;1.10;;;;;;;25.51;92.40;99242.06;5073913;28;20196;-62
2023/07/03 23:05:45;;;;;;;0.93;0.93;;;;;;;25.40;93.97;99239.56;5073167;28;20208;-62
2023/07/03 23:08:12;;;;;;;0.77;0.77;;;;;;;25.33;93.52;99235.88;5073453;28;20286;-62
2023/07/03 23:10:40;;;;;;;4.13;1.37;;;;;;;25.22;94.30;99228.19;5067127;28;20207;-62
2023/07/03 23:13:07;;;;;;;2.70;1.20;;;;;;;25.15;95.09;99229.72;5066995;28;20706;-62
2023/07/03 23:15:33;;;;;;;1.33;1.23;;;;;;;25.17;94.84;99233.84;5073238;28;20200;-62
2023/07/03 23:18:00;;;;;;;1.00;1.00;;;;;;;25.16;94.67;99242.69;5073051;28;20223;-62
2023/07/03 23:20:29;;;;;;;1.10;1.00;;;;;;;25.15;93.92;99242.81;5073277;28;20199;-62
2023/07/03 23:22:56;;;;;;;1.50;1.00;;;;;;;25.05;93.83;99229.75;5072700;28;20196;-62
2023/07/03 23:25:23;;;;;;;1.00;0.90;;;;;;;25.04;94.65;99238.59;5072908;28;20204;-62
2023/07/03 23:27:50;;;;;;;1.10;0.93;;;;;;;25.03;94.36;99237.75;5072988;28;20564;-62
2023/07/03 23:30:17;;;;;;;2.73;1.40;;;;;;;24.96;94.29;99241.91;5073111;28;20204;-63
2023/07/03 23:32:44;;;;;;;0.63;0.63;;;;;;;24.92;94.88;99240.53;5072567;28;20207;-62
2023/07/03 23:35:11;;;;;;;1.03;1.03;;;;;;;24.89;95.16;99235.56;5073093;28;20219;-62
2023/07/03 23:37:43;;;;;;;0.90;0.90;;;;;;;24.86;94.93;99241.09;5072829;28;20679;-62
2023/07/03 23:40:11;;;;;;;1.13;1.10;;;;;;;24.83;95.00;99244.00;5072504;28;20192;-62
2023/07/03 23:42:38;;;;;;;1.43;1.03;;;;;;;24.80;94.27;99240.81;5073046;28;20712;-62
2023/07/03 23:45:07;;;;;;;1.60;1.07;;;;;;;24.78;94.46;99243.53;5072620;28;20204;-62
2023/07/03 23:47:34;;;;;;;0.60;0.60;;;;;;;24.78;94.87;99243.53;5072783;28;20286;-64
2023/07/03 23:50:03;;;;;;;0.80;0.80;;;;;;;24.78;94.26;99248.78;5069271;28;20212;-64
2023/07/03 23:52:30;;;;;;;0.77;0.77;;;;;;;24.79;94.75;99249.63;5072526;28;20668;-62
2023/07/03 23:54:58;;;;;;;0.67;0.67;;;;;;;24.78;93.98;99248.78;5072514;28;20668;-62
2023/07/03 23:57:25;;;;;;;0.60;0.60;;;;;;;24.78;94.74;99259.28;5072413;28;20204;-62
2023/07/03 23:59:51;;;;;;;0.80;0.80;;;;;;;24.71;95.61;99250.34;5072202;28;20200;-62
